SWA239 KATL-KHOU
Flight info
| Callsign | SWA239 |
|---|---|
| Flight time | 1h 59m |
| Altitude | 36000 |
| Route | HAALO3 SARGE GARTS AEX WAPPL7 |
| Aircraft | B738/M-SADE2E3GIJ4RWZ/LB1D1 |
Departure
| Time | 2026-05-06 17:36 |
|---|---|
| Airport | Hartsfield Jackson Atlanta International Airport (KATL) |
Arrival
| Time | 2026-05-06 19:36 |
|---|---|
| Airport | William P. Hobby Airport (KHOU) |
| Time | Latitude | Longitude | Altitude | Speed | Heading |
|---|---|---|---|---|---|
| 2026-05-06 17:15 | 33.63902 | -84.43323 | 1034 ft | 0 kts | 90° |
| 2026-05-06 17:24 | 33.63903 | -84.43326 | 1034 ft | 3 kts | 82° |
| 2026-05-06 17:24 | 33.63902 | -84.43335 | 1034 ft | 4 kts | 91° |
| 2026-05-06 17:25 | 33.63905 | -84.43366 | 1034 ft | 4 kts | 111° |
| 2026-05-06 17:25 | 33.63919 | -84.43390 | 1034 ft | 4 kts | 156° |
| 2026-05-06 17:25 | 33.63932 | -84.43395 | 1034 ft | 0 kts | 180° |
| 2026-05-06 17:28 | 33.63928 | -84.43395 | 1034 ft | 2 kts | 180° |
| 2026-05-06 17:28 | 33.63905 | -84.43395 | 1034 ft | 6 kts | 180° |
| 2026-05-06 17:28 | 33.63850 | -84.43395 | 1034 ft | 10 kts | 180° |
| 2026-05-06 17:28 | 33.63780 | -84.43395 | 1034 ft | 10 kts | 180° |
| 2026-05-06 17:29 | 33.63712 | -84.43394 | 1034 ft | 10 kts | 170° |
| 2026-05-06 17:29 | 33.63668 | -84.43340 | 1034 ft | 9 kts | 104° |
| 2026-05-06 17:29 | 33.63665 | -84.43263 | 1034 ft | 9 kts | 90° |
| 2026-05-06 17:29 | 33.63665 | -84.43187 | 1034 ft | 9 kts | 90° |
| 2026-05-06 17:30 | 33.63659 | -84.43114 | 1034 ft | 9 kts | 122° |
| 2026-05-06 17:30 | 33.63604 | -84.43091 | 1034 ft | 8 kts | 158° |
| 2026-05-06 17:30 | 33.63582 | -84.43030 | 1034 ft | 8 kts | 92° |
| 2026-05-06 17:30 | 33.63581 | -84.42961 | 1034 ft | 9 kts | 91° |
| 2026-05-06 17:31 | 33.63581 | -84.42883 | 1034 ft | 10 kts | 89° |
| 2026-05-06 17:31 | 33.63582 | -84.42796 | 1034 ft | 11 kts | 89° |
| 2026-05-06 17:31 | 33.63582 | -84.42704 | 1035 ft | 11 kts | 90° |
| 2026-05-06 17:31 | 33.63582 | -84.42606 | 1035 ft | 12 kts | 90° |
| 2026-05-06 17:32 | 33.63582 | -84.42502 | 1035 ft | 13 kts | 90° |
| 2026-05-06 17:32 | 33.63582 | -84.42386 | 1035 ft | 14 kts | 90° |
| 2026-05-06 17:32 | 33.63582 | -84.42264 | 1035 ft | 15 kts | 90° |
| 2026-05-06 17:32 | 33.63582 | -84.42144 | 1035 ft | 14 kts | 90° |
| 2026-05-06 17:33 | 33.63582 | -84.42029 | 1035 ft | 13 kts | 89° |
| 2026-05-06 17:33 | 33.63583 | -84.41919 | 1034 ft | 13 kts | 90° |
| 2026-05-06 17:33 | 33.63582 | -84.41812 | 1034 ft | 13 kts | 90° |
| 2026-05-06 17:33 | 33.63582 | -84.41692 | 1034 ft | 15 kts | 90° |
| 2026-05-06 17:34 | 33.63582 | -84.41552 | 1034 ft | 18 kts | 90° |
| 2026-05-06 17:34 | 33.63582 | -84.41391 | 1033 ft | 20 kts | 90° |
| 2026-05-06 17:34 | 33.63582 | -84.41214 | 1034 ft | 22 kts | 90° |
| 2026-05-06 17:34 | 33.63582 | -84.41039 | 1034 ft | 15 kts | 90° |
| 2026-05-06 17:35 | 33.63581 | -84.40948 | 1034 ft | 9 kts | 101° |
| 2026-05-06 17:35 | 33.63532 | -84.40913 | 1035 ft | 9 kts | 177° |
| 2026-05-06 17:35 | 33.63478 | -84.40937 | 1035 ft | 8 kts | 236° |
| 2026-05-06 17:36 | 33.63472 | -84.41256 | 1033 ft | 62 kts | 270° |
| 2026-05-06 17:36 | 33.63471 | -84.42041 | 1035 ft | 124 kts | 270° |
| 2026-05-06 17:36 | 33.63475 | -84.43266 | 1089 ft | 167 kts | 267° |
| 2026-05-06 17:36 | 33.63492 | -84.44636 | 1817 ft | 159 kts | 267° |
| 2026-05-06 17:37 | 33.63493 | -84.45903 | 2644 ft | 152 kts | 264° |
| 2026-05-06 17:37 | 33.63481 | -84.47232 | 3067 ft | 172 kts | 265° |
| 2026-05-06 17:37 | 33.63466 | -84.48782 | 3301 ft | 198 kts | 265° |
| 2026-05-06 17:37 | 33.63455 | -84.50523 | 3508 ft | 218 kts | 266° |
| 2026-05-06 17:38 | 33.63449 | -84.52426 | 3709 ft | 240 kts | 267° |
| 2026-05-06 17:38 | 33.63333 | -84.54458 | 4286 ft | 246 kts | 251° |
| 2026-05-06 17:38 | 33.62385 | -84.56132 | 5095 ft | 248 kts | 224° |
| 2026-05-06 17:38 | 33.60924 | -84.57272 | 5843 ft | 254 kts | 210° |
| 2026-05-06 17:39 | 33.59280 | -84.58147 | 6534 ft | 261 kts | 207° |
| 2026-05-06 17:39 | 33.57600 | -84.58969 | 7350 ft | 259 kts | 207° |
| 2026-05-06 17:39 | 33.55928 | -84.59817 | 8095 ft | 261 kts | 208° |
| 2026-05-06 17:39 | 33.54246 | -84.60659 | 9059 ft | 262 kts | 207° |
| 2026-05-06 17:40 | 33.52541 | -84.61483 | 10018 ft | 265 kts | 207° |
| 2026-05-06 17:40 | 33.50829 | -84.62324 | 10892 ft | 268 kts | 208° |
| 2026-05-06 17:40 | 33.49090 | -84.63198 | 11656 ft | 274 kts | 209° |
| 2026-05-06 17:40 | 33.47323 | -84.64098 | 12382 ft | 280 kts | 210° |
| 2026-05-06 17:41 | 33.45517 | -84.65017 | 13169 ft | 284 kts | 210° |
| 2026-05-06 17:41 | 33.43687 | -84.65947 | 14062 ft | 287 kts | 210° |
| 2026-05-06 17:41 | 33.41723 | -84.66605 | 14765 ft | 305 kts | 193° |
| 2026-05-06 17:41 | 33.39493 | -84.66489 | 15047 ft | 338 kts | 181° |
| 2026-05-06 17:42 | 33.37083 | -84.66070 | 15213 ft | 362 kts | 179° |
| 2026-05-06 17:42 | 33.34511 | -84.65559 | 15364 ft | 384 kts | 178° |
| 2026-05-06 17:42 | 33.31810 | -84.65012 | 15495 ft | 403 kts | 177° |
| 2026-05-06 17:42 | 33.28981 | -84.64448 | 15657 ft | 418 kts | 177° |
| 2026-05-06 17:43 | 33.26075 | -84.63881 | 15958 ft | 428 kts | 178° |
| 2026-05-06 17:43 | 33.23154 | -84.63321 | 16381 ft | 433 kts | 178° |
| 2026-05-06 17:43 | 33.20163 | -84.62756 | 16884 ft | 436 kts | 178° |
| 2026-05-06 17:43 | 33.17158 | -84.62194 | 17390 ft | 439 kts | 178° |
| 2026-05-06 17:44 | 33.14131 | -84.61633 | 17848 ft | 442 kts | 178° |
| 2026-05-06 17:44 | 33.11076 | -84.61069 | 18293 ft | 446 kts | 178° |
| 2026-05-06 17:44 | 33.07999 | -84.60501 | 18692 ft | 449 kts | 178° |
| 2026-05-06 17:44 | 33.04899 | -84.59929 | 19088 ft | 452 kts | 178° |
| 2026-05-06 17:45 | 33.01781 | -84.59354 | 19453 ft | 455 kts | 178° |
| 2026-05-06 17:45 | 32.98641 | -84.58791 | 19822 ft | 457 kts | 180° |
| 2026-05-06 17:45 | 32.95486 | -84.58524 | 20225 ft | 453 kts | 186° |
| 2026-05-06 17:45 | 32.92332 | -84.58458 | 20658 ft | 454 kts | 187° |
| 2026-05-06 17:46 | 32.89155 | -84.58440 | 21056 ft | 456 kts | 187° |
| 2026-05-06 17:46 | 32.85969 | -84.58423 | 21431 ft | 459 kts | 187° |
| 2026-05-06 17:46 | 32.82765 | -84.58390 | 21764 ft | 463 kts | 187° |
| 2026-05-06 17:46 | 32.79533 | -84.58339 | 22120 ft | 465 kts | 186° |
| 2026-05-06 17:47 | 32.76293 | -84.58273 | 22439 ft | 467 kts | 186° |
| 2026-05-06 17:47 | 32.73026 | -84.58200 | 22753 ft | 470 kts | 186° |
| 2026-05-06 17:47 | 32.69755 | -84.58122 | 23059 ft | 473 kts | 186° |
| 2026-05-06 17:47 | 32.66448 | -84.58044 | 23378 ft | 475 kts | 186° |
| 2026-05-06 17:48 | 32.64256 | -84.57992 | 23590 ft | 476 kts | 186° |
| 2026-05-06 17:48 | 32.60937 | -84.57914 | 23859 ft | 478 kts | 186° |
| 2026-05-06 17:48 | 32.57602 | -84.57837 | 24105 ft | 480 kts | 186° |
| 2026-05-06 17:48 | 32.54251 | -84.57760 | 24365 ft | 482 kts | 186° |
| 2026-05-06 17:49 | 32.50894 | -84.57682 | 24609 ft | 483 kts | 186° |
| 2026-05-06 17:49 | 32.47524 | -84.57606 | 24809 ft | 486 kts | 186° |
| 2026-05-06 17:49 | 32.44142 | -84.57528 | 25016 ft | 488 kts | 186° |
| 2026-05-06 17:49 | 32.40741 | -84.57450 | 25253 ft | 489 kts | 186° |
| 2026-05-06 17:50 | 32.37330 | -84.57440 | 25479 ft | 486 kts | 191° |
| 2026-05-06 17:50 | 32.34117 | -84.58334 | 25656 ft | 468 kts | 210° |
| 2026-05-06 17:50 | 32.31364 | -84.60270 | 25921 ft | 454 kts | 225° |
| 2026-05-06 17:50 | 32.29113 | -84.62831 | 26160 ft | 446 kts | 234° |
| 2026-05-06 17:51 | 32.27360 | -84.65814 | 26335 ft | 440 kts | 246° |
| 2026-05-06 17:51 | 32.26210 | -84.69134 | 26518 ft | 436 kts | 253° |
| 2026-05-06 17:51 | 32.25251 | -84.72476 | 26723 ft | 435 kts | 254° |
| 2026-05-06 17:51 | 32.24293 | -84.75915 | 26931 ft | 435 kts | 255° |
| 2026-05-06 17:52 | 32.23352 | -84.79297 | 27218 ft | 431 kts | 255° |
| 2026-05-06 17:52 | 32.22426 | -84.82591 | 27631 ft | 426 kts | 255° |
| 2026-05-06 17:52 | 32.21485 | -84.85903 | 27968 ft | 424 kts | 255° |
| 2026-05-06 17:52 | 32.20540 | -84.89196 | 28229 ft | 423 kts | 255° |
| 2026-05-06 17:53 | 32.19589 | -84.92488 | 28480 ft | 423 kts | 255° |
| 2026-05-06 17:53 | 32.18638 | -84.95768 | 28765 ft | 422 kts | 255° |
| 2026-05-06 17:53 | 32.17687 | -84.99030 | 29080 ft | 420 kts | 255° |
| 2026-05-06 17:53 | 32.16737 | -85.02287 | 29425 ft | 418 kts | 255° |
| 2026-05-06 17:54 | 32.15791 | -85.05526 | 29786 ft | 416 kts | 255° |
| 2026-05-06 17:54 | 32.14848 | -85.08746 | 30247 ft | 413 kts | 255° |
| 2026-05-06 17:54 | 32.13913 | -85.11939 | 30580 ft | 410 kts | 255° |
| 2026-05-06 17:54 | 32.12982 | -85.15117 | 30834 ft | 410 kts | 255° |
| 2026-05-06 17:55 | 32.12051 | -85.18294 | 31052 ft | 410 kts | 255° |
| 2026-05-06 17:55 | 32.11120 | -85.21470 | 31308 ft | 409 kts | 255° |
| 2026-05-06 17:55 | 32.10188 | -85.24640 | 31598 ft | 408 kts | 255° |
| 2026-05-06 17:55 | 32.09260 | -85.27796 | 31894 ft | 406 kts | 255° |
| 2026-05-06 17:56 | 32.08335 | -85.30938 | 32188 ft | 405 kts | 255° |
| 2026-05-06 17:56 | 32.07411 | -85.34071 | 32458 ft | 404 kts | 255° |
| 2026-05-06 17:56 | 32.06488 | -85.37197 | 32736 ft | 403 kts | 255° |
| 2026-05-06 17:56 | 32.05568 | -85.40314 | 33012 ft | 402 kts | 255° |
| 2026-05-06 17:57 | 32.04648 | -85.43425 | 33326 ft | 400 kts | 255° |
| 2026-05-06 17:57 | 32.03735 | -85.46506 | 33753 ft | 396 kts | 255° |
| 2026-05-06 17:57 | 32.02843 | -85.49516 | 34099 ft | 394 kts | 255° |
| 2026-05-06 17:57 | 32.01939 | -85.52561 | 34326 ft | 394 kts | 255° |
| 2026-05-06 17:58 | 32.01036 | -85.55606 | 34543 ft | 393 kts | 255° |
| 2026-05-06 17:58 | 32.00135 | -85.58640 | 34799 ft | 392 kts | 255° |
| 2026-05-06 17:58 | 31.99233 | -85.61671 | 35008 ft | 392 kts | 255° |
| 2026-05-06 17:58 | 31.98331 | -85.64705 | 35170 ft | 393 kts | 255° |
| 2026-05-06 17:59 | 31.97426 | -85.67744 | 35403 ft | 392 kts | 255° |
| 2026-05-06 17:59 | 31.96523 | -85.70768 | 35683 ft | 390 kts | 255° |
| 2026-05-06 17:59 | 31.95624 | -85.73778 | 35958 ft | 389 kts | 255° |
| 2026-05-06 17:59 | 31.94726 | -85.76781 | 36067 ft | 391 kts | 255° |
| 2026-05-06 18:00 | 31.92918 | -85.82823 | 36079 ft | 390 kts | 255° |
| 2026-05-06 18:00 | 31.91117 | -85.88825 | 36069 ft | 388 kts | 255° |
| 2026-05-06 18:01 | 31.89319 | -85.94806 | 36077 ft | 387 kts | 255° |
| 2026-05-06 18:01 | 31.87535 | -86.00732 | 36077 ft | 386 kts | 255° |
| 2026-05-06 18:02 | 31.85737 | -86.06693 | 36072 ft | 386 kts | 255° |
| 2026-05-06 18:02 | 31.83936 | -86.12651 | 36076 ft | 387 kts | 255° |
| 2026-05-06 18:03 | 31.82129 | -86.18616 | 36067 ft | 388 kts | 254° |
| 2026-05-06 18:03 | 31.80315 | -86.24596 | 36067 ft | 389 kts | 254° |
| 2026-05-06 18:04 | 31.78494 | -86.30583 | 36061 ft | 389 kts | 254° |
| 2026-05-06 18:04 | 31.76667 | -86.36580 | 36055 ft | 390 kts | 254° |
| 2026-05-06 18:05 | 31.74846 | -86.42546 | 36036 ft | 390 kts | 254° |
| 2026-05-06 18:05 | 31.73008 | -86.48557 | 36052 ft | 392 kts | 254° |
| 2026-05-06 18:06 | 31.71159 | -86.54591 | 36054 ft | 393 kts | 254° |
| 2026-05-06 18:06 | 31.69302 | -86.60639 | 36054 ft | 394 kts | 254° |
| 2026-05-06 18:07 | 31.67439 | -86.66695 | 36053 ft | 394 kts | 254° |
| 2026-05-06 18:07 | 31.65576 | -86.72741 | 36055 ft | 394 kts | 254° |
| 2026-05-06 18:08 | 31.63705 | -86.78800 | 36047 ft | 395 kts | 254° |
| 2026-05-06 18:08 | 31.61832 | -86.84853 | 36052 ft | 395 kts | 254° |
| 2026-05-06 18:09 | 31.59954 | -86.90909 | 36051 ft | 395 kts | 254° |
| 2026-05-06 18:09 | 31.58088 | -86.96918 | 36057 ft | 394 kts | 253° |
| 2026-05-06 18:10 | 31.56210 | -87.02952 | 36051 ft | 394 kts | 253° |
| 2026-05-06 18:10 | 31.54333 | -87.08973 | 36056 ft | 393 kts | 253° |
| 2026-05-06 18:11 | 31.52450 | -87.15000 | 36055 ft | 393 kts | 253° |
| 2026-05-06 18:11 | 31.50568 | -87.21014 | 36039 ft | 394 kts | 253° |
| 2026-05-06 18:12 | 31.48678 | -87.27043 | 36013 ft | 394 kts | 253° |
| 2026-05-06 18:12 | 31.46786 | -87.33065 | 36039 ft | 394 kts | 253° |
| 2026-05-06 18:13 | 31.44900 | -87.39058 | 36035 ft | 395 kts | 253° |
| 2026-05-06 18:13 | 31.42997 | -87.45094 | 36044 ft | 395 kts | 253° |
| 2026-05-06 18:14 | 31.41087 | -87.51137 | 36039 ft | 396 kts | 253° |
| 2026-05-06 18:14 | 31.39174 | -87.57181 | 36034 ft | 396 kts | 253° |
| 2026-05-06 18:15 | 31.37257 | -87.63226 | 36031 ft | 396 kts | 253° |
| 2026-05-06 18:15 | 31.35339 | -87.69264 | 36039 ft | 396 kts | 253° |
| 2026-05-06 18:16 | 31.33416 | -87.75305 | 36041 ft | 396 kts | 253° |
| 2026-05-06 18:16 | 31.31490 | -87.81343 | 36035 ft | 396 kts | 253° |
| 2026-05-06 18:17 | 31.29562 | -87.87377 | 36037 ft | 396 kts | 253° |
| 2026-05-06 18:17 | 31.27631 | -87.93409 | 36034 ft | 396 kts | 253° |
| 2026-05-06 18:18 | 31.25699 | -87.99434 | 36041 ft | 396 kts | 253° |
| 2026-05-06 18:18 | 31.23760 | -88.05468 | 36033 ft | 397 kts | 253° |
| 2026-05-06 18:19 | 31.21816 | -88.11508 | 36026 ft | 396 kts | 253° |
| 2026-05-06 18:19 | 31.19873 | -88.17534 | 36034 ft | 397 kts | 253° |
| 2026-05-06 18:20 | 31.17922 | -88.23574 | 36035 ft | 397 kts | 253° |
| 2026-05-06 18:20 | 31.15968 | -88.29610 | 36031 ft | 398 kts | 253° |
| 2026-05-06 18:21 | 31.14018 | -88.35626 | 36037 ft | 399 kts | 253° |
| 2026-05-06 18:21 | 31.12051 | -88.41682 | 36034 ft | 399 kts | 253° |
| 2026-05-06 18:22 | 31.10462 | -88.47835 | 36026 ft | 395 kts | 262° |
| 2026-05-06 18:22 | 31.10056 | -88.54204 | 36023 ft | 395 kts | 272° |
| 2026-05-06 18:23 | 31.10410 | -88.60602 | 36025 ft | 395 kts | 273° |
| 2026-05-06 18:23 | 31.10780 | -88.67010 | 36025 ft | 397 kts | 273° |
| 2026-05-06 18:24 | 31.11137 | -88.73447 | 36023 ft | 397 kts | 273° |
| 2026-05-06 18:24 | 31.11481 | -88.79881 | 36022 ft | 397 kts | 273° |
| 2026-05-06 18:25 | 31.11820 | -88.86310 | 36021 ft | 396 kts | 272° |
| 2026-05-06 18:25 | 31.12153 | -88.92727 | 36025 ft | 396 kts | 272° |
| 2026-05-06 18:26 | 31.12482 | -88.99130 | 36019 ft | 395 kts | 272° |
| 2026-05-06 18:26 | 31.12808 | -89.05521 | 36012 ft | 395 kts | 272° |
| 2026-05-06 18:27 | 31.13131 | -89.11916 | 36016 ft | 394 kts | 272° |
| 2026-05-06 18:27 | 31.13450 | -89.18306 | 36018 ft | 394 kts | 272° |
| 2026-05-06 18:28 | 31.13764 | -89.24647 | 36019 ft | 394 kts | 272° |
| 2026-05-06 18:28 | 31.14077 | -89.31042 | 36020 ft | 394 kts | 272° |
| 2026-05-06 18:29 | 31.14387 | -89.37434 | 36020 ft | 394 kts | 272° |
| 2026-05-06 18:29 | 31.14694 | -89.43835 | 36014 ft | 394 kts | 272° |
| 2026-05-06 18:30 | 31.14997 | -89.50226 | 36009 ft | 395 kts | 272° |
| 2026-05-06 18:30 | 31.15299 | -89.56632 | 36019 ft | 395 kts | 272° |
| 2026-05-06 18:31 | 31.15594 | -89.62999 | 36006 ft | 396 kts | 272° |
| 2026-05-06 18:31 | 31.15890 | -89.69416 | 36013 ft | 395 kts | 272° |
| 2026-05-06 18:32 | 31.16181 | -89.75828 | 36004 ft | 396 kts | 272° |
| 2026-05-06 18:32 | 31.16471 | -89.82254 | 36003 ft | 396 kts | 272° |
| 2026-05-06 18:33 | 31.16756 | -89.88673 | 36013 ft | 396 kts | 272° |
| 2026-05-06 18:33 | 31.17039 | -89.95102 | 36013 ft | 397 kts | 272° |
| 2026-05-06 18:34 | 31.17320 | -90.01556 | 35999 ft | 398 kts | 272° |
| 2026-05-06 18:34 | 31.17551 | -90.06915 | 35997 ft | 396 kts | 272° |
| 2026-05-06 18:35 | 31.17824 | -90.13332 | 35998 ft | 395 kts | 271° |
| 2026-05-06 18:35 | 31.18094 | -90.19740 | 36001 ft | 395 kts | 271° |
| 2026-05-06 18:36 | 31.18360 | -90.26142 | 36000 ft | 394 kts | 271° |
| 2026-05-06 18:36 | 31.18623 | -90.32542 | 36000 ft | 394 kts | 271° |
| 2026-05-06 18:37 | 31.18883 | -90.38942 | 36000 ft | 394 kts | 271° |
| 2026-05-06 18:37 | 31.19139 | -90.45336 | 35997 ft | 394 kts | 271° |
| 2026-05-06 18:38 | 31.19392 | -90.51731 | 36002 ft | 394 kts | 271° |
| 2026-05-06 18:38 | 31.19642 | -90.58128 | 36001 ft | 394 kts | 271° |
| 2026-05-06 18:39 | 31.19890 | -90.64533 | 36000 ft | 395 kts | 271° |
| 2026-05-06 18:40 | 31.20254 | -90.74116 | 36001 ft | 397 kts | 271° |
| 2026-05-06 18:40 | 31.20495 | -90.80566 | 35987 ft | 396 kts | 271° |
| 2026-05-06 18:41 | 31.20732 | -90.86983 | 35972 ft | 394 kts | 271° |
| 2026-05-06 18:41 | 31.20964 | -90.93363 | 35974 ft | 393 kts | 271° |
| 2026-05-06 18:42 | 31.21192 | -90.99729 | 35974 ft | 392 kts | 271° |
| 2026-05-06 18:42 | 31.21417 | -91.06095 | 35969 ft | 392 kts | 271° |
| 2026-05-06 18:43 | 31.21639 | -91.12463 | 35977 ft | 392 kts | 271° |
| 2026-05-06 18:43 | 31.21857 | -91.18790 | 35968 ft | 392 kts | 270° |
| 2026-05-06 18:44 | 31.22072 | -91.25138 | 35953 ft | 390 kts | 270° |
| 2026-05-06 18:44 | 31.22284 | -91.31473 | 35957 ft | 389 kts | 270° |
| 2026-05-06 18:45 | 31.22492 | -91.37793 | 35961 ft | 389 kts | 270° |
| 2026-05-06 18:45 | 31.22697 | -91.44112 | 35961 ft | 389 kts | 270° |
| 2026-05-06 18:46 | 31.22898 | -91.50430 | 35961 ft | 390 kts | 270° |
| 2026-05-06 18:46 | 31.23097 | -91.56747 | 35961 ft | 390 kts | 270° |
| 2026-05-06 18:47 | 31.23293 | -91.63086 | 35953 ft | 389 kts | 270° |
| 2026-05-06 18:47 | 31.23486 | -91.69421 | 35954 ft | 391 kts | 270° |
| 2026-05-06 18:48 | 31.23677 | -91.75778 | 35942 ft | 391 kts | 270° |
| 2026-05-06 18:48 | 31.23864 | -91.82138 | 35946 ft | 391 kts | 270° |
| 2026-05-06 18:49 | 31.24048 | -91.88452 | 35954 ft | 391 kts | 270° |
| 2026-05-06 18:49 | 31.24229 | -91.94810 | 35961 ft | 391 kts | 269° |
| 2026-05-06 18:50 | 31.24407 | -92.01168 | 35956 ft | 391 kts | 269° |
| 2026-05-06 18:50 | 31.24582 | -92.07519 | 35956 ft | 391 kts | 269° |
| 2026-05-06 18:51 | 31.24753 | -92.13871 | 35957 ft | 391 kts | 269° |
| 2026-05-06 18:51 | 31.24922 | -92.20219 | 35950 ft | 391 kts | 269° |
| 2026-05-06 18:52 | 31.25087 | -92.26577 | 35947 ft | 391 kts | 269° |
| 2026-05-06 18:52 | 31.25249 | -92.32888 | 35954 ft | 391 kts | 269° |
| 2026-05-06 18:53 | 31.25408 | -92.39238 | 35955 ft | 391 kts | 269° |
| 2026-05-06 18:53 | 31.25564 | -92.45580 | 35959 ft | 390 kts | 269° |
| 2026-05-06 18:53 | 31.25357 | -92.48736 | 35961 ft | 388 kts | 258° |
| 2026-05-06 18:54 | 31.24601 | -92.51753 | 35958 ft | 388 kts | 249° |
| 2026-05-06 18:54 | 31.21877 | -92.57233 | 35964 ft | 392 kts | 240° |
| 2026-05-06 18:55 | 31.18897 | -92.62555 | 35945 ft | 391 kts | 241° |
| 2026-05-06 18:55 | 31.15935 | -92.67868 | 35947 ft | 390 kts | 241° |
| 2026-05-06 18:56 | 31.12991 | -92.73193 | 35941 ft | 390 kts | 241° |
| 2026-05-06 18:56 | 31.10075 | -92.78482 | 35938 ft | 390 kts | 241° |
| 2026-05-06 18:57 | 31.07138 | -92.83807 | 35929 ft | 390 kts | 241° |
| 2026-05-06 18:57 | 31.04196 | -92.89135 | 35924 ft | 391 kts | 241° |
| 2026-05-06 18:58 | 31.01244 | -92.94474 | 35925 ft | 391 kts | 241° |
| 2026-05-06 18:58 | 30.98291 | -92.99807 | 35926 ft | 392 kts | 241° |
| 2026-05-06 18:59 | 30.95336 | -93.05135 | 35926 ft | 392 kts | 241° |
| 2026-05-06 18:59 | 30.92387 | -93.10457 | 35934 ft | 389 kts | 240° |
| 2026-05-06 19:00 | 30.89446 | -93.15740 | 35928 ft | 388 kts | 240° |
| 2026-05-06 19:00 | 30.86508 | -93.21014 | 35942 ft | 388 kts | 240° |
| 2026-05-06 19:01 | 30.83587 | -93.26253 | 35938 ft | 388 kts | 240° |
| 2026-05-06 19:01 | 30.80624 | -93.31561 | 35936 ft | 389 kts | 240° |
| 2026-05-06 19:02 | 30.77674 | -93.36839 | 35936 ft | 389 kts | 240° |
| 2026-05-06 19:02 | 30.74735 | -93.42090 | 35935 ft | 390 kts | 240° |
| 2026-05-06 19:03 | 30.71827 | -93.47279 | 35935 ft | 390 kts | 240° |
| 2026-05-06 19:03 | 30.68865 | -93.52557 | 35926 ft | 391 kts | 240° |
| 2026-05-06 19:04 | 30.65887 | -93.57858 | 35925 ft | 391 kts | 240° |
| 2026-05-06 19:04 | 30.62916 | -93.63138 | 35923 ft | 391 kts | 240° |
| 2026-05-06 19:05 | 30.59937 | -93.68428 | 35922 ft | 391 kts | 240° |
| 2026-05-06 19:05 | 30.56954 | -93.73713 | 35916 ft | 391 kts | 240° |
| 2026-05-06 19:06 | 30.53970 | -93.78989 | 35916 ft | 391 kts | 240° |
| 2026-05-06 19:06 | 30.50983 | -93.84265 | 35920 ft | 391 kts | 240° |
| 2026-05-06 19:07 | 30.48007 | -93.89519 | 35621 ft | 394 kts | 240° |
| 2026-05-06 19:07 | 30.46991 | -93.91311 | 35219 ft | 393 kts | 240° |
| 2026-05-06 19:07 | 30.45012 | -93.94796 | 34332 ft | 391 kts | 240° |
| 2026-05-06 19:07 | 30.43515 | -93.97434 | 33557 ft | 392 kts | 240° |
| 2026-05-06 19:08 | 30.42011 | -94.00082 | 32733 ft | 394 kts | 240° |
| 2026-05-06 19:08 | 30.40501 | -94.02739 | 31911 ft | 395 kts | 239° |
| 2026-05-06 19:08 | 30.38986 | -94.05403 | 31090 ft | 397 kts | 239° |
| 2026-05-06 19:08 | 30.37466 | -94.08072 | 30236 ft | 398 kts | 239° |
| 2026-05-06 19:09 | 30.35936 | -94.10758 | 29204 ft | 401 kts | 239° |
| 2026-05-06 19:09 | 30.34394 | -94.13463 | 28193 ft | 403 kts | 239° |
| 2026-05-06 19:09 | 30.32850 | -94.16169 | 27146 ft | 404 kts | 238° |
| 2026-05-06 19:09 | 30.31298 | -94.18887 | 26118 ft | 405 kts | 238° |
| 2026-05-06 19:10 | 30.29761 | -94.21576 | 25837 ft | 391 kts | 238° |
| 2026-05-06 19:10 | 30.28289 | -94.24148 | 25621 ft | 375 kts | 238° |
| 2026-05-06 19:10 | 30.26878 | -94.26617 | 25464 ft | 360 kts | 238° |
| 2026-05-06 19:10 | 30.25518 | -94.28992 | 25314 ft | 347 kts | 238° |
| 2026-05-06 19:11 | 30.24214 | -94.31267 | 25168 ft | 334 kts | 238° |
| 2026-05-06 19:11 | 30.23053 | -94.33533 | 24893 ft | 324 kts | 246° |
| 2026-05-06 19:11 | 30.22351 | -94.36024 | 24357 ft | 326 kts | 252° |
| 2026-05-06 19:11 | 30.21704 | -94.38542 | 23870 ft | 326 kts | 252° |
| 2026-05-06 19:12 | 30.21050 | -94.41035 | 23386 ft | 331 kts | 252° |
| 2026-05-06 19:12 | 30.20368 | -94.43605 | 22865 ft | 335 kts | 252° |
| 2026-05-06 19:12 | 30.19683 | -94.46175 | 22352 ft | 333 kts | 252° |
| 2026-05-06 19:12 | 30.19004 | -94.48713 | 21897 ft | 328 kts | 251° |
| 2026-05-06 19:13 | 30.18332 | -94.51225 | 21441 ft | 325 kts | 251° |
| 2026-05-06 19:13 | 30.17665 | -94.53710 | 21000 ft | 323 kts | 251° |
| 2026-05-06 19:13 | 30.17001 | -94.56185 | 20536 ft | 321 kts | 251° |
| 2026-05-06 19:13 | 30.16341 | -94.58640 | 20108 ft | 318 kts | 251° |
| 2026-05-06 19:14 | 30.15687 | -94.61072 | 19666 ft | 316 kts | 250° |
| 2026-05-06 19:14 | 30.15035 | -94.63492 | 19202 ft | 315 kts | 250° |
| 2026-05-06 19:14 | 30.14385 | -94.65911 | 18742 ft | 315 kts | 250° |
| 2026-05-06 19:14 | 30.13738 | -94.68319 | 18306 ft | 313 kts | 250° |
| 2026-05-06 19:15 | 30.13093 | -94.70718 | 17836 ft | 311 kts | 250° |
| 2026-05-06 19:15 | 30.12452 | -94.73100 | 17375 ft | 309 kts | 250° |
| 2026-05-06 19:15 | 30.11825 | -94.75433 | 16943 ft | 307 kts | 250° |
| 2026-05-06 19:15 | 30.11191 | -94.77783 | 16517 ft | 305 kts | 250° |
| 2026-05-06 19:16 | 30.10562 | -94.80112 | 16100 ft | 303 kts | 250° |
| 2026-05-06 19:16 | 30.09938 | -94.82421 | 15764 ft | 299 kts | 249° |
| 2026-05-06 19:16 | 30.09320 | -94.84705 | 15358 ft | 298 kts | 249° |
| 2026-05-06 19:16 | 30.08701 | -94.86986 | 14943 ft | 297 kts | 249° |
| 2026-05-06 19:17 | 30.08085 | -94.89255 | 14535 ft | 297 kts | 249° |
| 2026-05-06 19:17 | 30.07462 | -94.91545 | 14115 ft | 302 kts | 249° |
| 2026-05-06 19:17 | 30.06831 | -94.93862 | 13827 ft | 305 kts | 249° |
| 2026-05-06 19:17 | 30.06189 | -94.96207 | 13454 ft | 309 kts | 249° |
| 2026-05-06 19:18 | 30.05543 | -94.98579 | 13148 ft | 311 kts | 249° |
| 2026-05-06 19:18 | 30.04893 | -95.00976 | 12852 ft | 315 kts | 250° |
| 2026-05-06 19:18 | 30.04236 | -95.03391 | 12540 ft | 315 kts | 250° |
| 2026-05-06 19:18 | 30.03583 | -95.05790 | 12246 ft | 313 kts | 250° |
| 2026-05-06 19:19 | 30.02930 | -95.08183 | 11945 ft | 311 kts | 250° |
| 2026-05-06 19:19 | 30.02285 | -95.10539 | 11713 ft | 306 kts | 249° |
| 2026-05-06 19:19 | 30.01615 | -95.12843 | 11350 ft | 308 kts | 246° |
| 2026-05-06 19:19 | 30.00508 | -95.14923 | 11061 ft | 306 kts | 222° |
| 2026-05-06 19:20 | 29.98712 | -95.16230 | 10781 ft | 305 kts | 208° |
| 2026-05-06 19:20 | 29.96723 | -95.17060 | 10492 ft | 304 kts | 197° |
| 2026-05-06 19:20 | 29.94682 | -95.17627 | 10206 ft | 300 kts | 195° |
| 2026-05-06 19:20 | 29.92665 | -95.18159 | 9946 ft | 294 kts | 196° |
| 2026-05-06 19:21 | 29.90733 | -95.18692 | 9956 ft | 278 kts | 196° |
| 2026-05-06 19:21 | 29.88900 | -95.19215 | 9775 ft | 269 kts | 197° |
| 2026-05-06 19:21 | 29.87645 | -95.19581 | 9356 ft | 277 kts | 197° |
| 2026-05-06 19:21 | 29.85182 | -95.20311 | 8891 ft | 275 kts | 197° |
| 2026-05-06 19:22 | 29.83932 | -95.20702 | 8669 ft | 274 kts | 197° |
| 2026-05-06 19:22 | 29.82127 | -95.21271 | 8411 ft | 271 kts | 197° |
| 2026-05-06 19:22 | 29.80320 | -95.21840 | 8144 ft | 267 kts | 197° |
| 2026-05-06 19:22 | 29.78537 | -95.22400 | 7885 ft | 264 kts | 197° |
| 2026-05-06 19:23 | 29.76779 | -95.22951 | 7641 ft | 260 kts | 197° |
| 2026-05-06 19:23 | 29.75057 | -95.23486 | 7387 ft | 252 kts | 197° |
| 2026-05-06 19:23 | 29.73387 | -95.24001 | 7144 ft | 244 kts | 197° |
| 2026-05-06 19:23 | 29.71781 | -95.24537 | 6912 ft | 236 kts | 203° |
| 2026-05-06 19:24 | 29.70291 | -95.25256 | 6702 ft | 228 kts | 206° |
| 2026-05-06 19:24 | 29.68860 | -95.25984 | 6480 ft | 222 kts | 206° |
| 2026-05-06 19:24 | 29.67456 | -95.26692 | 6280 ft | 219 kts | 206° |
| 2026-05-06 19:24 | 29.66118 | -95.27514 | 6076 ft | 219 kts | 224° |
| 2026-05-06 19:25 | 29.65237 | -95.28946 | 6065 ft | 222 kts | 244° |
| 2026-05-06 19:25 | 29.64756 | -95.30634 | 6010 ft | 221 kts | 253° |
| 2026-05-06 19:25 | 29.64406 | -95.32338 | 6005 ft | 218 kts | 256° |
| 2026-05-06 19:25 | 29.63981 | -95.34001 | 6002 ft | 217 kts | 249° |
| 2026-05-06 19:26 | 29.63482 | -95.35634 | 5996 ft | 218 kts | 251° |
| 2026-05-06 19:26 | 29.63110 | -95.37321 | 5995 ft | 224 kts | 264° |
| 2026-05-06 19:26 | 29.63386 | -95.39085 | 6007 ft | 229 kts | 292° |
| 2026-05-06 19:26 | 29.64331 | -95.40589 | 6013 ft | 236 kts | 310° |
| 2026-05-06 19:27 | 29.65480 | -95.41954 | 5999 ft | 238 kts | 310° |
| 2026-05-06 19:27 | 29.66630 | -95.43343 | 5875 ft | 243 kts | 307° |
| 2026-05-06 19:27 | 29.67796 | -95.44768 | 5635 ft | 246 kts | 311° |
| 2026-05-06 19:27 | 29.69065 | -95.46105 | 5402 ft | 249 kts | 312° |
| 2026-05-06 19:28 | 29.70337 | -95.47480 | 5203 ft | 255 kts | 317° |
| 2026-05-06 19:28 | 29.71661 | -95.48869 | 4926 ft | 259 kts | 311° |
| 2026-05-06 19:28 | 29.72947 | -95.50341 | 4683 ft | 262 kts | 318° |
| 2026-05-06 19:28 | 29.74281 | -95.51715 | 4483 ft | 252 kts | 311° |
| 2026-05-06 19:29 | 29.75477 | -95.53151 | 4266 ft | 248 kts | 316° |
| 2026-05-06 19:29 | 29.76793 | -95.54355 | 4161 ft | 235 kts | 315° |
| 2026-05-06 19:29 | 29.77986 | -95.55546 | 4041 ft | 221 kts | 328° |
| 2026-05-06 19:29 | 29.79477 | -95.55921 | 4032 ft | 228 kts | 4° |
| 2026-05-06 19:30 | 29.80962 | -95.55279 | 3970 ft | 233 kts | 36° |
| 2026-05-06 19:30 | 29.82214 | -95.54096 | 3882 ft | 235 kts | 41° |
| 2026-05-06 19:30 | 29.83260 | -95.52680 | 3769 ft | 232 kts | 70° |
| 2026-05-06 19:30 | 29.83345 | -95.50948 | 3758 ft | 218 kts | 112° |
| 2026-05-06 19:31 | 29.82521 | -95.49573 | 3749 ft | 205 kts | 137° |
| 2026-05-06 19:31 | 29.81586 | -95.48358 | 3695 ft | 200 kts | 135° |
| 2026-05-06 19:31 | 29.79781 | -95.46069 | 3639 ft | 189 kts | 139° |
| 2026-05-06 19:32 | 29.78843 | -95.44939 | 3453 ft | 203 kts | 137° |
| 2026-05-06 19:32 | 29.77851 | -95.43718 | 3258 ft | 212 kts | 133° |
| 2026-05-06 19:32 | 29.76821 | -95.42505 | 3015 ft | 211 kts | 139° |
| 2026-05-06 19:32 | 29.75809 | -95.41304 | 2776 ft | 204 kts | 139° |
| 2026-05-06 19:33 | 29.74841 | -95.40164 | 2555 ft | 195 kts | 139° |
| 2026-05-06 19:33 | 29.73877 | -95.39088 | 2307 ft | 191 kts | 149° |
| 2026-05-06 19:33 | 29.72816 | -95.38174 | 2125 ft | 194 kts | 136° |
| 2026-05-06 19:33 | 29.71945 | -95.36999 | 2033 ft | 193 kts | 139° |
| 2026-05-06 19:34 | 29.71139 | -95.35779 | 1869 ft | 192 kts | 127° |
| 2026-05-06 19:34 | 29.70293 | -95.34677 | 1829 ft | 181 kts | 142° |
| 2026-05-06 19:34 | 29.69413 | -95.33706 | 1863 ft | 171 kts | 142° |
| 2026-05-06 19:34 | 29.68597 | -95.32718 | 1615 ft | 170 kts | 137° |
| 2026-05-06 19:35 | 29.67810 | -95.31707 | 1199 ft | 164 kts | 141° |
| 2026-05-06 19:35 | 29.67017 | -95.30827 | 799 ft | 155 kts | 138° |
| 2026-05-06 19:35 | 29.66300 | -95.29984 | 523 ft | 140 kts | 137° |
| 2026-05-06 19:35 | 29.65651 | -95.29209 | 313 ft | 131 kts | 137° |
| 2026-05-06 19:36 | 29.65020 | -95.28457 | 116 ft | 130 kts | 136° |
| 2026-05-06 19:36 | 29.64418 | -95.27751 | 51 ft | 105 kts | 135° |
| 2026-05-06 19:36 | 29.64063 | -95.27330 | 51 ft | 41 kts | 134° |
| 2026-05-06 19:36 | 29.63956 | -95.27192 | 47 ft | 21 kts | 123° |
| 2026-05-06 19:37 | 29.63921 | -95.27017 | 51 ft | 23 kts | 90° |
| 2026-05-06 19:37 | 29.63922 | -95.26930 | 51 ft | 8 kts | 92° |
| 2026-05-06 19:37 | 29.63944 | -95.26874 | 50 ft | 8 kts | 30° |
| 2026-05-06 19:37 | 29.64004 | -95.26864 | 51 ft | 10 kts | 2° |
| 2026-05-06 19:38 | 29.64089 | -95.26860 | 51 ft | 15 kts | 2° |
| 2026-05-06 19:38 | 29.64185 | -95.26916 | 49 ft | 17 kts | 310° |
| 2026-05-06 19:38 | 29.64260 | -95.27017 | 51 ft | 16 kts | 310° |
| 2026-05-06 19:38 | 29.64332 | -95.27116 | 51 ft | 16 kts | 310° |
| 2026-05-06 19:39 | 29.64389 | -95.27213 | 51 ft | 14 kts | 294° |
| 2026-05-06 19:39 | 29.64441 | -95.27300 | 51 ft | 13 kts | 313° |
| 2026-05-06 19:39 | 29.64503 | -95.27374 | 51 ft | 13 kts | 314° |
| 2026-05-06 19:39 | 29.64563 | -95.27446 | 51 ft | 12 kts | 314° |
| 2026-05-06 19:40 | 29.64630 | -95.27504 | 51 ft | 12 kts | 340° |
| 2026-05-06 19:40 | 29.64712 | -95.27514 | 51 ft | 12 kts | 358° |
| 2026-05-06 19:40 | 29.64805 | -95.27517 | 51 ft | 15 kts | 359° |
| 2026-05-06 19:40 | 29.64927 | -95.27519 | 51 ft | 20 kts | 359° |
| 2026-05-06 19:41 | 29.65070 | -95.27526 | 51 ft | 17 kts | 345° |
| 2026-05-06 19:41 | 29.65101 | -95.27647 | 51 ft | 17 kts | 269° |
| 2026-05-06 19:41 | 29.65098 | -95.27778 | 51 ft | 16 kts | 268° |
| 2026-05-06 19:41 | 29.65110 | -95.27900 | 51 ft | 15 kts | 300° |
| 2026-05-06 19:42 | 29.65182 | -95.27989 | 49 ft | 15 kts | 314° |
| 2026-05-06 19:42 | 29.65268 | -95.27992 | 50 ft | 14 kts | 40° |
| 2026-05-06 19:42 | 29.65317 | -95.27910 | 51 ft | 8 kts | 104° |
| 2026-05-06 19:42 | 29.65289 | -95.27887 | 51 ft | 2 kts | 158° |
| 2026-05-06 19:43 | 29.65278 | -95.27882 | 51 ft | 1 kts | 157° |
| 2026-05-06 19:43 | 29.65276 | -95.27882 | 51 ft | 0 kts | 157° |